sensor_id;sensor_type;location;lat;lon;timestamp;P1;durP1;ratioP1;P2;durP2;ratioP2
46875;SDS011;32866;50.160;14.768;2023-02-17T00:00:04;87.80;;;30.30;;
46875;SDS011;32866;50.160;14.768;2023-02-17T00:02:32;79.23;;;30.13;;
46875;SDS011;32866;50.160;14.768;2023-02-17T00:04:58;77.00;;;34.30;;
46875;SDS011;32866;50.160;14.768;2023-02-17T00:07:23;100.40;;;33.67;;
46875;SDS011;32866;50.160;14.768;2023-02-17T00:09:49;89.30;;;32.25;;
46875;SDS011;32866;50.160;14.768;2023-02-17T00:12:14;92.57;;;34.40;;
46875;SDS011;32866;50.160;14.768;2023-02-17T00:14:39;82.72;;;31.70;;
46875;SDS011;32866;50.160;14.768;2023-02-17T00:17:05;96.35;;;32.88;;
46875;SDS011;32866;50.160;14.768;2023-02-17T00:19:30;73.45;;;30.58;;
46875;SDS011;32866;50.160;14.768;2023-02-17T00:21:57;83.70;;;35.60;;
46875;SDS011;32866;50.160;14.768;2023-02-17T00:24:26;81.43;;;31.37;;
46875;SDS011;32866;50.160;14.768;2023-02-17T00:26:53;75.87;;;31.20;;
46875;SDS011;32866;50.160;14.768;2023-02-17T00:29:19;77.07;;;31.77;;
46875;SDS011;32866;50.160;14.768;2023-02-17T00:31:45;77.63;;;30.08;;
46875;SDS011;32866;50.160;14.768;2023-02-17T00:34:11;82.15;;;32.10;;
46875;SDS011;32866;50.160;14.768;2023-02-17T00:36:36;78.93;;;29.50;;
46875;SDS011;32866;50.160;14.768;2023-02-17T00:41:29;72.67;;;29.17;;
46875;SDS011;32866;50.160;14.768;2023-02-17T00:43:54;73.70;;;29.05;;
46875;SDS011;32866;50.160;14.768;2023-02-17T00:46:20;81.43;;;31.27;;
46875;SDS011;32866;50.160;14.768;2023-02-17T00:48:47;64.47;;;28.70;;
46875;SDS011;32866;50.160;14.768;2023-02-17T00:51:13;84.63;;;29.57;;
46875;SDS011;32866;50.160;14.768;2023-02-17T00:53:39;81.30;;;33.47;;
46875;SDS011;32866;50.160;14.768;2023-02-17T00:56:05;76.20;;;32.85;;
46875;SDS011;32866;50.160;14.768;2023-02-17T00:58:32;68.40;;;32.53;;
46875;SDS011;32866;50.160;14.768;2023-02-17T01:00:57;73.82;;;32.85;;
46875;SDS011;32866;50.160;14.768;2023-02-17T01:03:23;73.63;;;30.17;;
46875;SDS011;32866;50.160;14.768;2023-02-17T01:05:49;74.32;;;29.13;;
46875;SDS011;32866;50.160;14.768;2023-02-17T01:08:14;93.32;;;32.95;;
46875;SDS011;32866;50.160;14.768;2023-02-17T01:10:42;65.70;;;28.07;;
46875;SDS011;32866;50.160;14.768;2023-02-17T01:13:09;78.13;;;33.63;;
46875;SDS011;32866;50.160;14.768;2023-02-17T01:15:39;72.53;;;29.93;;
46875;SDS011;32866;50.160;14.768;2023-02-17T01:18:06;72.87;;;28.87;;
46875;SDS011;32866;50.160;14.768;2023-02-17T01:20:35;74.22;;;30.73;;
46875;SDS011;32866;50.160;14.768;2023-02-17T01:23:02;74.53;;;33.63;;
46875;SDS011;32866;50.160;14.768;2023-02-17T01:27:53;73.00;;;28.77;;
46875;SDS011;32866;50.160;14.768;2023-02-17T01:30:18;76.00;;;31.20;;
46875;SDS011;32866;50.160;14.768;2023-02-17T01:32:44;85.32;;;33.53;;
46875;SDS011;32866;50.160;14.768;2023-02-17T01:35:09;91.82;;;33.17;;
46875;SDS011;32866;50.160;14.768;2023-02-17T01:37:35;91.82;;;32.13;;
46875;SDS011;32866;50.160;14.768;2023-02-17T01:40:00;71.15;;;30.27;;
46875;SDS011;32866;50.160;14.768;2023-02-17T01:42:25;79.97;;;31.15;;
46875;SDS011;32866;50.160;14.768;2023-02-17T01:47:41;83.70;;;32.57;;
46875;SDS011;32866;50.160;14.768;2023-02-17T01:50:13;91.63;;;34.60;;
46875;SDS011;32866;50.160;14.768;2023-02-17T01:55:06;82.70;;;30.30;;
46875;SDS011;32866;50.160;14.768;2023-02-17T01:57:34;73.50;;;29.67;;
46875;SDS011;32866;50.160;14.768;2023-02-17T02:00:03;91.63;;;34.20;;
46875;SDS011;32866;50.160;14.768;2023-02-17T02:02:31;81.10;;;32.67;;
46875;SDS011;32866;50.160;14.768;2023-02-17T02:04:57;94.40;;;30.75;;
46875;SDS011;32866;50.160;14.768;2023-02-17T02:07:25;86.78;;;31.30;;
46875;SDS011;32866;50.160;14.768;2023-02-17T02:09:55;74.40;;;32.37;;
46875;SDS011;32866;50.160;14.768;2023-02-17T02:12:24;74.57;;;31.83;;
46875;SDS011;32866;50.160;14.768;2023-02-17T02:14:51;90.87;;;32.27;;
46875;SDS011;32866;50.160;14.768;2023-02-17T02:17:23;89.57;;;32.67;;
46875;SDS011;32866;50.160;14.768;2023-02-17T02:34:06;87.95;;;32.55;;
46875;SDS011;32866;50.160;14.768;2023-02-17T02:36:42;80.40;;;32.80;;
46875;SDS011;32866;50.160;14.768;2023-02-17T02:39:16;89.57;;;35.60;;
46875;SDS011;32866;50.160;14.768;2023-02-17T02:41:44;86.03;;;34.13;;
46875;SDS011;32866;50.160;14.768;2023-02-17T02:44:16;81.57;;;31.67;;
46875;SDS011;32866;50.160;14.768;2023-02-17T02:46:43;98.03;;;33.17;;
46875;SDS011;32866;50.160;14.768;2023-02-17T02:49:09;83.05;;;32.65;;
46875;SDS011;32866;50.160;14.768;2023-02-17T02:57:11;78.25;;;31.45;;
46875;SDS011;32866;50.160;14.768;2023-02-17T03:02:32;77.07;;;30.27;;
46875;SDS011;32866;50.160;14.768;2023-02-17T03:07:53;69.90;;;31.13;;
46875;SDS011;32866;50.160;14.768;2023-02-17T03:10:23;79.83;;;30.53;;
46875;SDS011;32866;50.160;14.768;2023-02-17T03:12:49;92.00;;;33.05;;
46875;SDS011;32866;50.160;14.768;2023-02-17T03:15:19;80.10;;;30.30;;
46875;SDS011;32866;50.160;14.768;2023-02-17T03:17:50;67.17;;;27.83;;
46875;SDS011;32866;50.160;14.768;2023-02-17T03:20:16;75.70;;;31.67;;
46875;SDS011;32866;50.160;14.768;2023-02-17T03:22:42;71.10;;;30.33;;
46875;SDS011;32866;50.160;14.768;2023-02-17T03:25:09;66.43;;;28.90;;
46875;SDS011;32866;50.160;14.768;2023-02-17T03:27:35;70.55;;;28.27;;
46875;SDS011;32866;50.160;14.768;2023-02-17T03:30:00;69.03;;;29.15;;
46875;SDS011;32866;50.160;14.768;2023-02-17T03:32:26;73.30;;;29.83;;
46875;SDS011;32866;50.160;14.768;2023-02-17T03:34:51;67.82;;;28.02;;
46875;SDS011;32866;50.160;14.768;2023-02-17T03:37:17;75.22;;;30.10;;
46875;SDS011;32866;50.160;14.768;2023-02-17T03:42:08;76.73;;;29.87;;
46875;SDS011;32866;50.160;14.768;2023-02-17T03:44:33;65.53;;;27.38;;
46875;SDS011;32866;50.160;14.768;2023-02-17T03:46:59;75.25;;;31.52;;
46875;SDS011;32866;50.160;14.768;2023-02-17T03:49:24;67.35;;;29.42;;
46875;SDS011;32866;50.160;14.768;2023-02-17T03:51:49;65.78;;;29.55;;
46875;SDS011;32866;50.160;14.768;2023-02-17T03:54:15;74.93;;;30.27;;
46875;SDS011;32866;50.160;14.768;2023-02-17T03:56:40;77.97;;;31.10;;
46875;SDS011;32866;50.160;14.768;2023-02-17T03:59:06;66.50;;;28.13;;
46875;SDS011;32866;50.160;14.768;2023-02-17T04:01:32;68.65;;;31.48;;
46875;SDS011;32866;50.160;14.768;2023-02-17T04:03:57;71.25;;;30.70;;
46875;SDS011;32866;50.160;14.768;2023-02-17T04:06:23;66.85;;;27.75;;
46875;SDS011;32866;50.160;14.768;2023-02-17T04:08:48;62.75;;;29.35;;
46875;SDS011;32866;50.160;14.768;2023-02-17T04:11:13;70.63;;;29.08;;
46875;SDS011;32866;50.160;14.768;2023-02-17T04:13:39;69.15;;;29.35;;
46875;SDS011;32866;50.160;14.768;2023-02-17T04:16:05;65.07;;;29.00;;
46875;SDS011;32866;50.160;14.768;2023-02-17T04:18:33;65.20;;;28.23;;
46875;SDS011;32866;50.160;14.768;2023-02-17T04:20:59;66.03;;;29.70;;
46875;SDS011;32866;50.160;14.768;2023-02-17T04:23:24;69.15;;;29.83;;
46875;SDS011;32866;50.160;14.768;2023-02-17T04:25:50;80.95;;;31.83;;
46875;SDS011;32866;50.160;14.768;2023-02-17T04:28:15;59.90;;;25.27;;
46875;SDS011;32866;50.160;14.768;2023-02-17T04:30:42;63.45;;;29.08;;
46875;SDS011;32866;50.160;14.768;2023-02-17T04:33:11;80.40;;;31.93;;
46875;SDS011;32866;50.160;14.768;2023-02-17T04:35:37;69.80;;;28.42;;
46875;SDS011;32866;50.160;14.768;2023-02-17T04:38:03;62.08;;;28.08;;
46875;SDS011;32866;50.160;14.768;2023-02-17T04:40:29;67.22;;;29.55;;
46875;SDS011;32866;50.160;14.768;2023-02-17T04:45:21;51.97;;;26.67;;
46875;SDS011;32866;50.160;14.768;2023-02-17T04:47:46;68.87;;;27.90;;
46875;SDS011;32866;50.160;14.768;2023-02-17T04:50:11;61.72;;;29.48;;
46875;SDS011;32866;50.160;14.768;2023-02-17T04:52:37;67.47;;;28.73;;
46875;SDS011;32866;50.160;14.768;2023-02-17T04:55:03;72.35;;;28.67;;
46875;SDS011;32866;50.160;14.768;2023-02-17T04:57:28;71.00;;;29.10;;
46875;SDS011;32866;50.160;14.768;2023-02-17T04:59:54;59.88;;;26.40;;
46875;SDS011;32866;50.160;14.768;2023-02-17T05:02:19;64.30;;;29.75;;
46875;SDS011;32866;50.160;14.768;2023-02-17T05:04:45;67.43;;;27.35;;
46875;SDS011;32866;50.160;14.768;2023-02-17T05:07:10;64.22;;;27.55;;
46875;SDS011;32866;50.160;14.768;2023-02-17T05:09:36;67.65;;;27.80;;
46875;SDS011;32866;50.160;14.768;2023-02-17T05:12:01;65.93;;;27.98;;
46875;SDS011;32866;50.160;14.768;2023-02-17T05:14:29;59.77;;;28.53;;
46875;SDS011;32866;50.160;14.768;2023-02-17T05:16:54;54.55;;;27.17;;
46875;SDS011;32866;50.160;14.768;2023-02-17T05:19:20;64.93;;;28.33;;
46875;SDS011;32866;50.160;14.768;2023-02-17T05:21:45;61.15;;;26.85;;
46875;SDS011;32866;50.160;14.768;2023-02-17T05:24:10;57.63;;;27.42;;
46875;SDS011;32866;50.160;14.768;2023-02-17T05:26:36;64.32;;;29.48;;
46875;SDS011;32866;50.160;14.768;2023-02-17T05:29:01;68.03;;;27.50;;
46875;SDS011;32866;50.160;14.768;2023-02-17T05:31:27;61.10;;;28.05;;
46875;SDS011;32866;50.160;14.768;2023-02-17T05:33:53;64.72;;;29.52;;
46875;SDS011;32866;50.160;14.768;2023-02-17T05:36:18;63.65;;;29.02;;
46875;SDS011;32866;50.160;14.768;2023-02-17T05:38:44;56.67;;;28.55;;
46875;SDS011;32866;50.160;14.768;2023-02-17T05:41:13;58.97;;;26.33;;
46875;SDS011;32866;50.160;14.768;2023-02-17T05:43:39;59.58;;;27.08;;
46875;SDS011;32866;50.160;14.768;2023-02-17T05:46:04;59.28;;;28.35;;
46875;SDS011;32866;50.160;14.768;2023-02-17T05:48:30;59.25;;;26.83;;
46875;SDS011;32866;50.160;14.768;2023-02-17T05:50:55;58.95;;;28.45;;
46875;SDS011;32866;50.160;14.768;2023-02-17T05:53:20;58.33;;;28.02;;
46875;SDS011;32866;50.160;14.768;2023-02-17T05:55:46;51.70;;;26.13;;
46875;SDS011;32866;50.160;14.768;2023-02-17T05:58:11;64.22;;;29.52;;
46875;SDS011;32866;50.160;14.768;2023-02-17T06:00:37;62.63;;;26.80;;
46875;SDS011;32866;50.160;14.768;2023-02-17T06:03:02;56.10;;;26.00;;
46875;SDS011;32866;50.160;14.768;2023-02-17T06:05:27;53.85;;;27.85;;
46875;SDS011;32866;50.160;14.768;2023-02-17T06:07:53;55.90;;;26.35;;
46875;SDS011;32866;50.160;14.768;2023-02-17T06:10:18;48.38;;;25.88;;
46875;SDS011;32866;50.160;14.768;2023-02-17T06:12:44;59.85;;;28.55;;
46875;SDS011;32866;50.160;14.768;2023-02-17T06:15:09;52.50;;;25.50;;
46875;SDS011;32866;50.160;14.768;2023-02-17T06:17:34;60.22;;;27.25;;
46875;SDS011;32866;50.160;14.768;2023-02-17T06:20:00;55.17;;;25.05;;
46875;SDS011;32866;50.160;14.768;2023-02-17T06:22:25;63.63;;;27.60;;
46875;SDS011;32866;50.160;14.768;2023-02-17T06:24:51;65.38;;;29.02;;
46875;SDS011;32866;50.160;14.768;2023-02-17T06:27:16;52.50;;;26.55;;
46875;SDS011;32866;50.160;14.768;2023-02-17T06:29:41;64.28;;;30.83;;
46875;SDS011;32866;50.160;14.768;2023-02-17T06:32:07;55.20;;;27.05;;
46875;SDS011;32866;50.160;14.768;2023-02-17T06:34:32;51.75;;;27.58;;
46875;SDS011;32866;50.160;14.768;2023-02-17T06:36:58;53.20;;;25.83;;
46875;SDS011;32866;50.160;14.768;2023-02-17T06:39:23;57.28;;;25.85;;
46875;SDS011;32866;50.160;14.768;2023-02-17T06:41:49;52.70;;;26.50;;
46875;SDS011;32866;50.160;14.768;2023-02-17T06:44:14;59.65;;;26.63;;
46875;SDS011;32866;50.160;14.768;2023-02-17T06:46:40;61.42;;;26.75;;
46875;SDS011;32866;50.160;14.768;2023-02-17T06:49:05;59.03;;;27.33;;
46875;SDS011;32866;50.160;14.768;2023-02-17T06:51:30;52.72;;;26.08;;
46875;SDS011;32866;50.160;14.768;2023-02-17T06:53:56;53.90;;;27.08;;
46875;SDS011;32866;50.160;14.768;2023-02-17T06:56:21;57.55;;;26.52;;
46875;SDS011;32866;50.160;14.768;2023-02-17T06:58:47;51.40;;;27.15;;
46875;SDS011;32866;50.160;14.768;2023-02-17T07:01:14;56.75;;;26.42;;
46875;SDS011;32866;50.160;14.768;2023-02-17T07:03:41;57.87;;;26.73;;
46875;SDS011;32866;50.160;14.768;2023-02-17T07:06:07;55.63;;;26.85;;
46875;SDS011;32866;50.160;14.768;2023-02-17T07:08:32;58.97;;;28.35;;
46875;SDS011;32866;50.160;14.768;2023-02-17T07:10:58;66.22;;;30.13;;
46875;SDS011;32866;50.160;14.768;2023-02-17T07:13:23;60.75;;;30.35;;
46875;SDS011;32866;50.160;14.768;2023-02-17T07:15:49;62.30;;;27.25;;
46875;SDS011;32866;50.160;14.768;2023-02-17T07:18:14;62.80;;;27.63;;
46875;SDS011;32866;50.160;14.768;2023-02-17T07:20:39;59.78;;;28.60;;
46875;SDS011;32866;50.160;14.768;2023-02-17T07:23:05;64.15;;;28.83;;
46875;SDS011;32866;50.160;14.768;2023-02-17T07:25:30;65.13;;;28.63;;
46875;SDS011;32866;50.160;14.768;2023-02-17T07:27:56;56.55;;;27.33;;
46875;SDS011;32866;50.160;14.768;2023-02-17T07:30:21;72.78;;;30.33;;
46875;SDS011;32866;50.160;14.768;2023-02-17T07:32:46;55.90;;;26.52;;
46875;SDS011;32866;50.160;14.768;2023-02-17T07:35:12;52.78;;;29.10;;
46875;SDS011;32866;50.160;14.768;2023-02-17T07:37:37;65.07;;;29.60;;
46875;SDS011;32866;50.160;14.768;2023-02-17T07:40:03;56.60;;;28.30;;
46875;SDS011;32866;50.160;14.768;2023-02-17T07:42:28;64.40;;;29.20;;
46875;SDS011;32866;50.160;14.768;2023-02-17T07:44:54;59.58;;;29.45;;
46875;SDS011;32866;50.160;14.768;2023-02-17T07:47:19;66.35;;;32.08;;
46875;SDS011;32866;50.160;14.768;2023-02-17T07:49:45;59.50;;;28.30;;
46875;SDS011;32866;50.160;14.768;2023-02-17T07:52:10;60.00;;;28.25;;
46875;SDS011;32866;50.160;14.768;2023-02-17T07:54:36;59.05;;;29.13;;
46875;SDS011;32866;50.160;14.768;2023-02-17T07:57:01;60.28;;;30.85;;
46875;SDS011;32866;50.160;14.768;2023-02-17T07:59:26;63.22;;;30.42;;
46875;SDS011;32866;50.160;14.768;2023-02-17T08:01:52;63.85;;;30.65;;
46875;SDS011;32866;50.160;14.768;2023-02-17T08:04:17;54.90;;;27.55;;
46875;SDS011;32866;50.160;14.768;2023-02-17T08:06:42;65.30;;;29.23;;
46875;SDS011;32866;50.160;14.768;2023-02-17T08:09:09;63.40;;;28.70;;
46875;SDS011;32866;50.160;14.768;2023-02-17T08:11:53;55.63;;;27.83;;
46875;SDS011;32866;50.160;14.768;2023-02-17T08:14:37;62.67;;;27.77;;
46875;SDS011;32866;50.160;14.768;2023-02-17T08:17:03;65.43;;;30.88;;
46875;SDS011;32866;50.160;14.768;2023-02-17T08:19:29;64.30;;;29.70;;
46875;SDS011;32866;50.160;14.768;2023-02-17T08:21:54;66.07;;;32.38;;
46875;SDS011;32866;50.160;14.768;2023-02-17T08:24:20;54.47;;;28.30;;
46875;SDS011;32866;50.160;14.768;2023-02-17T08:26:46;56.17;;;28.95;;
46875;SDS011;32866;50.160;14.768;2023-02-17T08:29:12;63.33;;;29.30;;
46875;SDS011;32866;50.160;14.768;2023-02-17T08:31:37;60.10;;;31.08;;
46875;SDS011;32866;50.160;14.768;2023-02-17T08:34:04;59.53;;;30.15;;
46875;SDS011;32866;50.160;14.768;2023-02-17T08:36:31;54.13;;;29.13;;
46875;SDS011;32866;50.160;14.768;2023-02-17T08:41:24;55.27;;;28.83;;
46875;SDS011;32866;50.160;14.768;2023-02-17T08:43:58;55.97;;;28.67;;
46875;SDS011;32866;50.160;14.768;2023-02-17T08:46:27;48.90;;;26.07;;
46875;SDS011;32866;50.160;14.768;2023-02-17T08:48:53;56.10;;;28.33;;
46875;SDS011;32866;50.160;14.768;2023-02-17T08:51:21;38.67;;;18.70;;
46875;SDS011;32866;50.160;14.768;2023-02-17T08:53:48;17.70;;;10.90;;
46875;SDS011;32866;50.160;14.768;2023-02-17T08:56:14;13.63;;;9.17;;
46875;SDS011;32866;50.160;14.768;2023-02-17T08:58:40;12.55;;;8.32;;
46875;SDS011;32866;50.160;14.768;2023-02-17T09:01:05;15.57;;;9.18;;
46875;SDS011;32866;50.160;14.768;2023-02-17T09:03:34;12.30;;;7.80;;
46875;SDS011;32866;50.160;14.768;2023-02-17T09:06:01;9.13;;;7.53;;
46875;SDS011;32866;50.160;14.768;2023-02-17T09:08:27;11.43;;;6.88;;
46875;SDS011;32866;50.160;14.768;2023-02-17T09:10:52;14.35;;;7.10;;
46875;SDS011;32866;50.160;14.768;2023-02-17T09:13:18;13.27;;;6.88;;
46875;SDS011;32866;50.160;14.768;2023-02-17T09:15:43;17.98;;;7.35;;
46875;SDS011;32866;50.160;14.768;2023-02-17T09:18:09;11.43;;;6.68;;
46875;SDS011;32866;50.160;14.768;2023-02-17T09:20:35;9.23;;;5.88;;
46875;SDS011;32866;50.160;14.768;2023-02-17T09:23:01;12.80;;;6.93;;
46875;SDS011;32866;50.160;14.768;2023-02-17T09:25:27;10.70;;;6.15;;
46875;SDS011;32866;50.160;14.768;2023-02-17T09:27:52;12.32;;;6.10;;
46875;SDS011;32866;50.160;14.768;2023-02-17T09:30:18;10.75;;;6.15;;
46875;SDS011;32866;50.160;14.768;2023-02-17T09:32:43;10.65;;;6.68;;
46875;SDS011;32866;50.160;14.768;2023-02-17T09:35:15;12.77;;;7.88;;
46875;SDS011;32866;50.160;14.768;2023-02-17T09:37:42;10.13;;;6.30;;
46875;SDS011;32866;50.160;14.768;2023-02-17T09:40:13;10.80;;;6.97;;
46875;SDS011;32866;50.160;14.768;2023-02-17T09:42:42;9.97;;;6.47;;
46875;SDS011;32866;50.160;14.768;2023-02-17T09:45:09;10.27;;;6.93;;
46875;SDS011;32866;50.160;14.768;2023-02-17T09:47:48;11.17;;;6.60;;
46875;SDS011;32866;50.160;14.768;2023-02-17T09:50:19;23.97;;;7.03;;
46875;SDS011;32866;50.160;14.768;2023-02-17T09:52:54;11.13;;;6.93;;
46875;SDS011;32866;50.160;14.768;2023-02-17T09:55:25;12.10;;;7.43;;
46875;SDS011;32866;50.160;14.768;2023-02-17T09:58:01;11.27;;;6.73;;
46875;SDS011;32866;50.160;14.768;2023-02-17T10:00:34;9.97;;;6.43;;
46875;SDS011;32866;50.160;14.768;2023-02-17T10:03:07;11.37;;;6.60;;
46875;SDS011;32866;50.160;14.768;2023-02-17T10:05:54;12.87;;;6.90;;
46875;SDS011;32866;50.160;14.768;2023-02-17T10:08:47;13.27;;;7.97;;
46875;SDS011;32866;50.160;14.768;2023-02-17T10:11:22;9.80;;;5.73;;
46875;SDS011;32866;50.160;14.768;2023-02-17T10:13:50;13.88;;;4.65;;
46875;SDS011;32866;50.160;14.768;2023-02-17T10:16:20;12.47;;;6.00;;
46875;SDS011;32866;50.160;14.768;2023-02-17T10:18:51;10.40;;;6.30;;
46875;SDS011;32866;50.160;14.768;2023-02-17T10:21:26;15.53;;;7.90;;
46875;SDS011;32866;50.160;14.768;2023-02-17T10:23:55;11.93;;;7.00;;
46875;SDS011;32866;50.160;14.768;2023-02-17T10:29:30;9.80;;;5.38;;
46875;SDS011;32866;50.160;14.768;2023-02-17T10:37:47;8.85;;;5.05;;
46875;SDS011;32866;50.160;14.768;2023-02-17T10:42:45;11.90;;;6.03;;
46875;SDS011;32866;50.160;14.768;2023-02-17T10:45:30;11.43;;;5.70;;
46875;SDS011;32866;50.160;14.768;2023-02-17T10:48:06;9.27;;;5.78;;
46875;SDS011;32866;50.160;14.768;2023-02-17T10:50:36;16.20;;;6.77;;
46875;SDS011;32866;50.160;14.768;2023-02-17T10:53:14;14.57;;;6.70;;
46875;SDS011;32866;50.160;14.768;2023-02-17T10:58:50;9.80;;;6.17;;
46875;SDS011;32866;50.160;14.768;2023-02-17T11:01:16;10.77;;;6.00;;
46875;SDS011;32866;50.160;14.768;2023-02-17T11:03:42;8.30;;;5.28;;
46875;SDS011;32866;50.160;14.768;2023-02-17T11:06:19;11.83;;;6.23;;
46875;SDS011;32866;50.160;14.768;2023-02-17T11:09:51;10.23;;;5.17;;
46875;SDS011;32866;50.160;14.768;2023-02-17T11:11:59;8.87;;;5.20;;
46875;SDS011;32866;50.160;14.768;2023-02-17T11:14:27;10.60;;;5.10;;
46875;SDS011;32866;50.160;14.768;2023-02-17T11:17:00;7.60;;;5.03;;
46875;SDS011;32866;50.160;14.768;2023-02-17T11:21:55;12.27;;;5.00;;
46875;SDS011;32866;50.160;14.768;2023-02-17T11:24:23;6.60;;;4.87;;
46875;SDS011;32866;50.160;14.768;2023-02-17T11:29:21;6.77;;;4.33;;
46875;SDS011;32866;50.160;14.768;2023-02-17T11:32:00;7.10;;;4.47;;
46875;SDS011;32866;50.160;14.768;2023-02-17T11:34:31;9.03;;;5.13;;
46875;SDS011;32866;50.160;14.768;2023-02-17T11:37:05;5.63;;;4.23;;
46875;SDS011;32866;50.160;14.768;2023-02-17T11:39:43;6.37;;;3.93;;
46875;SDS011;32866;50.160;14.768;2023-02-17T11:42:14;8.70;;;4.20;;
46875;SDS011;32866;50.160;14.768;2023-02-17T11:44:49;6.50;;;3.50;;
46875;SDS011;32866;50.160;14.768;2023-02-17T11:55:24;7.00;;;4.70;;
46875;SDS011;32866;50.160;14.768;2023-02-17T11:58:27;7.00;;;4.53;;
46875;SDS011;32866;50.160;14.768;2023-02-17T12:06:58;4.33;;;3.30;;
46875;SDS011;32866;50.160;14.768;2023-02-17T12:12:32;5.80;;;3.40;;
46875;SDS011;32866;50.160;14.768;2023-02-17T12:18:17;5.93;;;3.73;;
46875;SDS011;32866;50.160;14.768;2023-02-17T12:21:18;4.50;;;3.03;;
46875;SDS011;32866;50.160;14.768;2023-02-17T12:26:38;9.40;;;4.50;;
46875;SDS011;32866;50.160;14.768;2023-02-17T12:34:41;5.05;;;3.03;;
46875;SDS011;32866;50.160;14.768;2023-02-17T12:37:20;4.38;;;3.20;;
46875;SDS011;32866;50.160;14.768;2023-02-17T12:39:54;5.40;;;3.60;;
46875;SDS011;32866;50.160;14.768;2023-02-17T12:42:31;5.53;;;3.53;;
46875;SDS011;32866;50.160;14.768;2023-02-17T12:47:33;7.40;;;3.47;;
46875;SDS011;32866;50.160;14.768;2023-02-17T12:50:15;7.20;;;3.20;;
46875;SDS011;32866;50.160;14.768;2023-02-17T12:52:45;5.77;;;3.10;;
46875;SDS011;32866;50.160;14.768;2023-02-17T12:55:17;4.03;;;2.77;;
46875;SDS011;32866;50.160;14.768;2023-02-17T13:00:45;4.23;;;2.90;;
46875;SDS011;32866;50.160;14.768;2023-02-17T13:03:45;6.77;;;3.07;;
46875;SDS011;32866;50.160;14.768;2023-02-17T13:12:06;4.03;;;2.73;;
46875;SDS011;32866;50.160;14.768;2023-02-17T13:14:40;5.20;;;2.97;;
46875;SDS011;32866;50.160;14.768;2023-02-17T13:20:00;7.20;;;3.17;;
46875;SDS011;32866;50.160;14.768;2023-02-17T13:22:39;6.50;;;3.70;;
46875;SDS011;32866;50.160;14.768;2023-02-17T13:25:06;5.97;;;3.30;;
46875;SDS011;32866;50.160;14.768;2023-02-17T13:27:37;6.83;;;3.33;;
46875;SDS011;32866;50.160;14.768;2023-02-17T13:30:05;7.33;;;4.43;;
46875;SDS011;32866;50.160;14.768;2023-02-17T13:32:34;7.63;;;4.17;;
46875;SDS011;32866;50.160;14.768;2023-02-17T13:37:54;7.40;;;4.80;;
46875;SDS011;32866;50.160;14.768;2023-02-17T13:42:47;4.83;;;3.53;;
46875;SDS011;32866;50.160;14.768;2023-02-17T13:47:53;5.47;;;3.33;;
46875;SDS011;32866;50.160;14.768;2023-02-17T13:50:33;3.60;;;3.10;;
46875;SDS011;32866;50.160;14.768;2023-02-17T13:53:01;5.80;;;3.77;;
46875;SDS011;32866;50.160;14.768;2023-02-17T13:55:30;7.77;;;3.87;;
46875;SDS011;32866;50.160;14.768;2023-02-17T13:57:56;4.03;;;2.65;;
46875;SDS011;32866;50.160;14.768;2023-02-17T14:00:24;5.27;;;3.40;;
46875;SDS011;32866;50.160;14.768;2023-02-17T14:02:53;4.30;;;3.03;;
46875;SDS011;32866;50.160;14.768;2023-02-17T14:05:37;3.63;;;2.73;;
46875;SDS011;32866;50.160;14.768;2023-02-17T14:08:14;6.43;;;3.37;;
46875;SDS011;32866;50.160;14.768;2023-02-17T14:11:02;5.73;;;3.07;;
46875;SDS011;32866;50.160;14.768;2023-02-17T14:13:31;3.87;;;2.50;;
46875;SDS011;32866;50.160;14.768;2023-02-17T14:15:59;4.27;;;2.97;;
46875;SDS011;32866;50.160;14.768;2023-02-17T14:18:37;3.95;;;2.67;;
46875;SDS011;32866;50.160;14.768;2023-02-17T14:23:49;3.00;;;2.43;;
46875;SDS011;32866;50.160;14.768;2023-02-17T14:29:07;6.73;;;2.93;;
46875;SDS011;32866;50.160;14.768;2023-02-17T14:34:03;9.47;;;3.03;;
46875;SDS011;32866;50.160;14.768;2023-02-17T14:36:30;3.92;;;2.63;;
46875;SDS011;32866;50.160;14.768;2023-02-17T14:38:58;5.37;;;2.67;;
46875;SDS011;32866;50.160;14.768;2023-02-17T14:43:50;4.43;;;2.80;;
46875;SDS011;32866;50.160;14.768;2023-02-17T14:46:15;3.95;;;2.75;;
46875;SDS011;32866;50.160;14.768;2023-02-17T14:48:44;2.77;;;2.30;;
46875;SDS011;32866;50.160;14.768;2023-02-17T14:51:11;6.10;;;3.10;;
46875;SDS011;32866;50.160;14.768;2023-02-17T14:53:37;3.23;;;2.90;;
46875;SDS011;32866;50.160;14.768;2023-02-17T14:56:09;4.93;;;2.83;;
46875;SDS011;32866;50.160;14.768;2023-02-17T14:58:50;3.83;;;2.20;;
46875;SDS011;32866;50.160;14.768;2023-02-17T15:01:17;4.00;;;2.20;;
46875;SDS011;32866;50.160;14.768;2023-02-17T15:03:43;3.90;;;2.13;;
46875;SDS011;32866;50.160;14.768;2023-02-17T15:06:51;5.72;;;2.55;;
46875;SDS011;32866;50.160;14.768;2023-02-17T15:09:03;2.40;;;1.97;;
46875;SDS011;32866;50.160;14.768;2023-02-17T15:11:30;2.75;;;2.25;;
46875;SDS011;32866;50.160;14.768;2023-02-17T15:14:01;3.50;;;2.30;;
46875;SDS011;32866;50.160;14.768;2023-02-17T15:16:27;5.20;;;2.23;;
46875;SDS011;32866;50.160;14.768;2023-02-17T15:21:29;2.37;;;2.17;;
46875;SDS011;32866;50.160;14.768;2023-02-17T15:23:57;2.30;;;2.10;;
46875;SDS011;32866;50.160;14.768;2023-02-17T15:26:24;3.07;;;2.03;;
46875;SDS011;32866;50.160;14.768;2023-02-17T15:28:50;2.93;;;2.03;;
46875;SDS011;32866;50.160;14.768;2023-02-17T15:31:16;2.92;;;2.08;;
46875;SDS011;32866;50.160;14.768;2023-02-17T15:33:44;3.10;;;2.20;;
46875;SDS011;32866;50.160;14.768;2023-02-17T15:36:19;5.30;;;2.07;;
46875;SDS011;32866;50.160;14.768;2023-02-17T15:38:45;5.60;;;2.63;;
46875;SDS011;32866;50.160;14.768;2023-02-17T15:41:15;3.47;;;2.33;;
46875;SDS011;32866;50.160;14.768;2023-02-17T15:43:44;5.13;;;1.97;;
46875;SDS011;32866;50.160;14.768;2023-02-17T15:46:16;3.07;;;2.17;;
46875;SDS011;32866;50.160;14.768;2023-02-17T15:48:43;3.07;;;2.40;;
46875;SDS011;32866;50.160;14.768;2023-02-17T15:51:10;4.07;;;2.40;;
46875;SDS011;32866;50.160;14.768;2023-02-17T15:53:39;1.90;;;1.67;;
46875;SDS011;32866;50.160;14.768;2023-02-17T15:56:15;2.08;;;1.88;;
46875;SDS011;32866;50.160;14.768;2023-02-17T15:58:43;3.73;;;2.30;;
46875;SDS011;32866;50.160;14.768;2023-02-17T16:01:31;2.90;;;1.97;;
46875;SDS011;32866;50.160;14.768;2023-02-17T16:03:57;3.85;;;2.00;;
46875;SDS011;32866;50.160;14.768;2023-02-17T16:06:23;3.70;;;2.37;;
46875;SDS011;32866;50.160;14.768;2023-02-17T16:08:50;4.30;;;2.53;;
46875;SDS011;32866;50.160;14.768;2023-02-17T16:11:15;3.40;;;2.35;;
46875;SDS011;32866;50.160;14.768;2023-02-17T16:13:42;5.13;;;2.30;;
46875;SDS011;32866;50.160;14.768;2023-02-17T16:16:28;4.33;;;2.00;;
46875;SDS011;32866;50.160;14.768;2023-02-17T16:18:57;2.77;;;2.03;;
46875;SDS011;32866;50.160;14.768;2023-02-17T16:21:23;2.90;;;1.73;;
46875;SDS011;32866;50.160;14.768;2023-02-17T16:23:48;2.60;;;1.80;;
46875;SDS011;32866;50.160;14.768;2023-02-17T16:28:42;2.73;;;2.30;;
46875;SDS011;32866;50.160;14.768;2023-02-17T16:31:09;3.17;;;2.33;;
46875;SDS011;32866;50.160;14.768;2023-02-17T16:33:34;2.33;;;1.77;;